Accueil
METAR-TAF:

METAR-TAF

Aéroports :

Aéroport de Nancy-Essey

Nancy, France

latitude: 48-41N, longitude: 006-13E, altitude: 225 m

Observation

Le bulletin a été fait il y a 26 minutes, à 17:00 UTC
Vent 10 kt de ouest/sud-ouest, variant entre sud-ouest et ouest
Température 23°C
Humidité 50%
Pression 1014 hPa
Visibilité 10 km ou plus
Quelques nuages à une hauteur de 4600 ft
Nuages fragmentés à une hauteur de 7000 ft

METAR: LFSN 281700Z AUTO 25010KT 220V280 9999 FEW046 BKN070 23/12 Q1014

Heure: 19:26 (17:26 UTC)


TAF: absent

Observations et prévisions météorologiques de plus de 4000 aéroports (messages METAR et TAF).

Les stations disponibles sont représentées par des disques jaunes et rouges sur la carte.

Passer la souris dessus pour voir le nom de la station.

Cliquer dessus pour voir les observations et prévisions météorologiques.

Pour changer de carte: cliquez sur les boutons verts avec une croix noire pour zoomer, sur le bouton vert avec un tiret pour effectuer un zoom arrière, ou sur les flèches vertes pour les cartes adjacentes.


METAR-TAF: